Pagrindinis puslapis
METAR-TAF:

METAR-TAF

Oro uostai :

Ipohas, Malaizija

platuma: 04-34-09N, ilguma: 101-05-35E, Aukštis: 40 m

Dabartinis oras

Ataskaita buvo paskelbta 51 minutes, ne 21:00 UTC
Ramus vėjas
Temperatūra 24°C
Drėgmė 94%
Slėgis 1008 hPa
Matomumas: 8000 m
Mažai debesys ne aukštis 500 ft

METAR: WMKI 292100Z 00000KT 8000 FEW005 24/23 Q1008

Laikas: 05:51 (21:51 UTC)

Prognozė

Ataskaita buvo paskelbta 4 valandos ir 51 minutes, ne 17:00 UTC
Prognozė galioja nuo 29 metu 18 UTC su 30 metu 18 UTC
Vėjas 5 kt iš Šiaurės/Šiaurės Rytų
Matomumas: 8000 m
Mažai debesys ne aukštis 2000 ft
Tikimybė 30% :
Laikinai
nuo 30 metu 08 UTC su 30 metu 12 UTC
Vėjas 10 kt iš Pietvakarių
Matomumas: 5000 m
Mažai debesys ne aukštis 1700 ft, Liūtiniai kamuoliniai debesys.
perkūnija, lietus

TAF: WMKI 291700Z 2918/3018 03005KT 8000 FEW020 PROB30 TEMPO 3008/3012 22010KT 5000 TSRA FEW017CB

Orai ataskaitas ir orų prognozės (METAR, TAF).

turimą stotys yra geltonos ir raudonos taškus žemėlapyje.

Perkelti pele per norėdami pamatyti stoties vardą.

Tada spustelėkite, norėdami matyti oro stebėjimo ir prognozės.

Norėdami pakeisti žemėlapį: spustelėkite ant žalios mygtukų su juodo kryžiaus žemyn,; žalią mygtuką su brūkšneliu, jei norite nutolinti; arba žalių rodyklių gretimoms žemėlapius.


METAR-TAF: